createdAt,value
2022-09-02T00:07:57.915Z,30.30
2022-09-02T00:18:48.289Z,25.00
2022-09-02T00:29:41.124Z,15.60
2022-09-02T00:40:26.534Z,19.90
2022-09-02T00:51:08.055Z,22.20
2022-09-02T01:02:10.732Z,22.40
2022-09-02T01:12:57.570Z,12.00
2022-09-02T01:23:17.266Z,6.40
2022-09-02T01:34:15.201Z,3.70
2022-09-02T01:44:56.163Z,5.10
2022-09-02T01:56:13.119Z,15.40
2022-09-02T02:06:35.463Z,10.90
2022-09-02T02:17:13.517Z,5.70
2022-09-02T02:28:15.435Z,6.90
2022-09-02T02:38:19.488Z,6.00
2022-09-02T02:48:23.594Z,7.50
2022-09-02T02:59:29.875Z,8.90
2022-09-02T03:10:39.023Z,7.00
2022-09-02T03:20:52.030Z,8.90
2022-09-02T03:31:51.057Z,6.80
2022-09-02T03:43:00.116Z,6.20
2022-09-02T03:54:15.937Z,8.30
2022-09-02T04:05:06.371Z,4.30
2022-09-02T04:15:26.600Z,5.50
2022-09-02T04:26:27.979Z,17.80
2022-09-02T04:37:22.051Z,35.60
2022-09-02T04:48:06.032Z,28.00
2022-09-02T04:58:59.452Z,22.40
2022-09-02T05:10:09.482Z,16.40
2022-09-02T05:21:23.921Z,8.60
2022-09-02T05:32:37.012Z,6.20
2022-09-02T05:43:46.402Z,3.40
2022-09-02T05:54:49.396Z,6.50
2022-09-02T06:06:06.453Z,3.40
2022-09-02T06:16:26.941Z,4.30
2022-09-02T06:26:43.978Z,5.00
2022-09-02T06:37:03.152Z,6.20
2022-09-02T06:47:16.256Z,4.20
2022-09-02T06:57:39.355Z,5.30
2022-09-02T07:08:08.921Z,5.40
2022-09-02T07:18:39.608Z,8.10
2022-09-02T07:28:58.595Z,5.90
2022-09-02T07:39:32.552Z,5.80
2022-09-02T07:50:18.925Z,5.90
2022-09-02T08:00:45.698Z,5.00
2022-09-02T08:10:56.465Z,3.30
2022-09-02T08:21:03.123Z,2.40
2022-09-02T08:31:13.688Z,3.50
2022-09-02T08:41:28.183Z,7.60
2022-09-02T08:51:52.739Z,3.50
2022-09-02T09:02:31.709Z,4.70
2022-09-02T09:13:12.609Z,4.20
2022-09-02T09:23:34.670Z,3.70
2022-09-02T09:34:11.553Z,4.70
2022-09-02T09:45:21.698Z,4.50
2022-09-02T09:56:02.151Z,3.60
2022-09-02T10:06:48.541Z,2.70
2022-09-02T10:17:30.438Z,2.20
2022-09-02T10:28:04.287Z,1.90
2022-09-02T10:38:41.681Z,1.50
2022-09-02T10:49:23.171Z,2.70
2022-09-02T10:59:51.200Z,2.00
2022-09-02T11:10:03.973Z,3.00
2022-09-02T11:20:27.617Z,1.60
2022-09-02T11:30:43.601Z,2.80
2022-09-02T11:41:38.092Z,1.30
2022-09-02T12:02:45.417Z,2.80
2022-09-02T12:13:01.416Z,2.40
2022-09-02T12:23:40.073Z,3.60
2022-09-02T12:33:49.409Z,3.20
2022-09-02T12:44:09.436Z,3.50
2022-09-02T12:54:16.564Z,2.00
2022-09-02T13:04:30.838Z,3.90
2022-09-02T13:14:56.137Z,1.80
2022-09-02T13:25:29.223Z,3.20
2022-09-02T13:35:59.346Z,1.70
2022-09-02T13:46:16.455Z,1.60
2022-09-02T13:56:25.236Z,1.50
2022-09-02T14:06:51.915Z,3.60
2022-09-02T14:17:21.285Z,1.50
2022-09-02T14:27:26.917Z,2.40
2022-09-02T14:37:51.227Z,1.40
2022-09-02T14:47:59.226Z,3.90
2022-09-02T14:58:03.979Z,2.30
2022-09-02T15:08:16.048Z,5.30
2022-09-02T15:18:19.336Z,2.60
2022-09-02T15:28:23.083Z,2.00
2022-09-02T15:38:26.490Z,0.80
2022-09-02T15:48:32.822Z,1.50
2022-09-02T15:58:45.057Z,1.90
2022-09-02T16:08:51.712Z,1.20
2022-09-02T16:18:55.255Z,3.70
2022-09-02T16:29:16.070Z,2.30
2022-09-02T16:39:20.658Z,2.20
2022-09-02T16:49:35.111Z,1.70
2022-09-02T16:59:53.068Z,2.10
2022-09-02T17:10:01.795Z,3.00
2022-09-02T17:20:13.229Z,2.00
2022-09-02T17:30:46.029Z,3.00
2022-09-02T17:41:10.299Z,4.00
2022-09-02T17:51:36.641Z,5.60
2022-09-02T18:01:53.507Z,4.10
2022-09-02T18:12:07.569Z,3.90
2022-09-02T18:22:52.186Z,3.30
2022-09-02T18:33:07.620Z,6.60
2022-09-02T18:43:24.843Z,11.70
2022-09-02T18:53:36.822Z,5.80
2022-09-02T19:03:40.158Z,5.90
2022-09-02T19:14:03.540Z,8.90
2022-09-02T19:24:24.023Z,6.60
2022-09-02T19:34:43.037Z,8.60
2022-09-02T19:44:59.037Z,6.00
2022-09-02T19:55:18.699Z,4.90
2022-09-02T20:05:53.737Z,7.30
2022-09-02T20:16:35.305Z,8.00
2022-09-02T20:27:35.674Z,7.60
2022-09-02T20:38:34.515Z,8.30
2022-09-02T20:49:42.120Z,7.50
2022-09-02T21:00:52.209Z,7.00
2022-09-02T21:11:25.417Z,10.00
2022-09-02T21:22:43.608Z,9.30
2022-09-02T21:33:30.705Z,5.60
2022-09-02T21:45:04.224Z,3.70
2022-09-02T21:56:23.094Z,8.40
2022-09-02T22:07:18.658Z,4.60
2022-09-02T22:18:08.570Z,5.30
2022-09-02T22:29:07.034Z,5.20
2022-09-02T22:40:21.737Z,6.20
2022-09-02T22:51:09.859Z,5.40
2022-09-02T23:01:58.616Z,7.50
2022-09-02T23:12:51.627Z,6.90
2022-09-02T23:24:37.237Z,8.00
2022-09-02T23:36:06.493Z,5.60
2022-09-02T23:47:23.268Z,8.50
2022-09-02T23:58:43.645Z,6.30
